createdAt,value
2022-08-17T00:00:42.606Z,13.33
2022-08-17T00:03:10.516Z,8.00
2022-08-17T00:05:43.579Z,8.33
2022-08-17T00:08:12.144Z,7.87
2022-08-17T00:10:40.844Z,8.23
2022-08-17T00:13:10.782Z,15.93
2022-08-17T00:15:41.497Z,8.63
2022-08-17T00:18:53.937Z,9.50
2022-08-17T00:21:00.371Z,7.50
2022-08-17T00:23:29.058Z,6.50
2022-08-17T00:25:57.021Z,7.60
2022-08-17T00:28:25.387Z,11.50
2022-08-17T00:30:54.059Z,5.40
2022-08-17T00:33:25.758Z,7.17
2022-08-17T00:35:57.350Z,7.30
2022-08-17T00:38:28.702Z,7.23
2022-08-17T00:40:59.004Z,6.00
2022-08-17T00:43:31.778Z,6.70
2022-08-17T00:46:00.893Z,4.83
2022-08-17T00:48:30.771Z,5.57
2022-08-17T00:51:06.381Z,5.37
2022-08-17T00:53:38.714Z,11.30
2022-08-17T00:56:11.808Z,3.93
2022-08-17T00:58:42.063Z,6.43
2022-08-17T01:01:13.324Z,7.27
2022-08-17T01:03:55.574Z,5.57
2022-08-17T01:06:29.109Z,4.40
2022-08-17T01:09:00.538Z,6.23
2022-08-17T01:11:30.631Z,5.83
2022-08-17T01:13:58.596Z,3.70
2022-08-17T01:16:28.745Z,3.30
2022-08-17T01:18:59.709Z,3.50
2022-08-17T01:21:34.328Z,5.87
2022-08-17T01:24:06.412Z,4.70
2022-08-17T01:26:35.614Z,6.57
2022-08-17T01:29:05.608Z,7.17
2022-08-17T01:31:37.477Z,3.93
2022-08-17T01:34:09.740Z,6.17
2022-08-17T01:36:39.365Z,4.07
2022-08-17T01:39:14.483Z,5.83
2022-08-17T01:41:42.655Z,8.67
2022-08-17T01:44:14.068Z,5.77
2022-08-17T01:46:42.113Z,6.07
2022-08-17T01:49:12.036Z,4.33
2022-08-17T01:51:41.364Z,4.17
2022-08-17T01:54:14.699Z,4.03
2022-08-17T01:56:47.407Z,5.33
2022-08-17T01:59:18.354Z,7.50
2022-08-17T02:01:46.469Z,8.93
2022-08-17T02:04:15.505Z,6.20
2022-08-17T02:06:45.080Z,6.20
2022-08-17T02:09:25.600Z,6.10
2022-08-17T02:11:54.791Z,4.40
2022-08-17T02:14:24.545Z,6.17
2022-08-17T02:16:53.225Z,4.37
2022-08-17T02:19:21.837Z,7.23
2022-08-17T02:21:52.263Z,4.93
2022-08-17T02:25:00.058Z,4.43
2022-08-17T02:27:13.488Z,4.53
2022-08-17T02:29:41.674Z,4.40
2022-08-17T02:32:25.473Z,4.63
2022-08-17T02:34:56.733Z,7.07
2022-08-17T02:37:24.993Z,10.27
2022-08-17T02:39:54.379Z,6.57
2022-08-17T02:42:29.058Z,3.83
2022-08-17T02:44:56.991Z,5.23
2022-08-17T02:47:24.887Z,4.20
2022-08-17T02:49:55.850Z,4.80
2022-08-17T02:52:43.055Z,6.60
2022-08-17T02:55:18.482Z,6.20
2022-08-17T02:57:47.315Z,5.83
2022-08-17T03:00:18.624Z,3.80
2022-08-17T03:02:47.008Z,3.77
2022-08-17T03:05:18.182Z,5.23
2022-08-17T03:07:46.119Z,4.10
2022-08-17T03:10:16.445Z,4.50
2022-08-17T03:12:45.882Z,5.57
2022-08-17T03:15:17.493Z,7.13
2022-08-17T03:17:46.044Z,4.93
2022-08-17T03:20:14.591Z,5.60
2022-08-17T03:22:47.812Z,5.87
2022-08-17T03:25:25.270Z,5.53
2022-08-17T03:27:53.322Z,4.87
2022-08-17T03:30:22.515Z,5.57
2022-08-17T03:32:52.831Z,5.67
2022-08-17T03:35:24.519Z,4.67
2022-08-17T03:38:00.890Z,5.33
2022-08-17T03:40:55.158Z,4.43
2022-08-17T03:43:20.567Z,6.83
2022-08-17T03:46:06.445Z,6.80
2022-08-17T03:49:11.998Z,4.87
2022-08-17T03:51:57.616Z,11.10
2022-08-17T03:54:43.231Z,5.50
2022-08-17T03:57:13.287Z,7.87
2022-08-17T03:59:42.128Z,5.67
2022-08-17T04:02:13.800Z,5.57
2022-08-17T04:04:41.991Z,4.70
2022-08-17T04:07:10.307Z,7.97
2022-08-17T04:09:38.310Z,6.13
2022-08-17T04:12:06.988Z,5.87
2022-08-17T04:14:51.571Z,7.00
2022-08-17T04:17:20.792Z,4.87
2022-08-17T04:19:48.760Z,4.40
2022-08-17T04:22:33.318Z,4.40
2022-08-17T04:25:09.547Z,7.27
2022-08-17T04:27:37.890Z,6.77
2022-08-17T04:30:08.539Z,5.23
2022-08-17T04:33:04.735Z,6.20
2022-08-17T04:35:43.964Z,4.93
2022-08-17T04:38:14.702Z,6.60
2022-08-17T04:41:00.701Z,4.93
2022-08-17T04:43:30.928Z,4.93
2022-08-17T04:46:05.713Z,6.37
2022-08-17T04:48:37.454Z,6.47
2022-08-17T04:51:09.682Z,5.67
2022-08-17T04:53:39.458Z,4.73
2022-08-17T04:56:08.006Z,9.17
2022-08-17T04:58:44.651Z,4.17
2022-08-17T05:01:14.386Z,4.87
2022-08-17T05:03:42.856Z,5.27
2022-08-17T05:06:10.992Z,26.10
2022-08-17T05:08:38.980Z,4.80
2022-08-17T05:11:07.144Z,3.97
2022-08-17T05:13:36.187Z,4.17
2022-08-17T05:16:05.624Z,6.10
2022-08-17T05:18:34.951Z,5.03
2022-08-17T05:21:03.746Z,3.50
2022-08-17T05:23:36.527Z,3.07
2022-08-17T05:26:16.321Z,4.60
2022-08-17T05:28:57.281Z,4.03
2022-08-17T05:31:27.966Z,3.90
2022-08-17T05:33:57.269Z,3.93
2022-08-17T05:36:37.870Z,6.77
2022-08-17T05:39:15.908Z,5.47
2022-08-17T05:41:46.571Z,5.83
2022-08-17T05:44:14.658Z,4.47
2022-08-17T05:46:47.675Z,4.97
2022-08-17T05:49:20.072Z,5.60
2022-08-17T05:52:09.159Z,14.20
2022-08-17T05:54:46.825Z,8.80
2022-08-17T05:57:32.772Z,11.53
2022-08-17T06:00:07.693Z,5.37
2022-08-17T06:02:49.575Z,6.27
2022-08-17T06:05:36.861Z,4.40
2022-08-17T06:08:15.602Z,6.43
2022-08-17T06:10:52.620Z,12.73
2022-08-17T06:13:30.133Z,8.67
2022-08-17T06:16:03.284Z,13.20
2022-08-17T06:18:39.789Z,11.87
2022-08-17T06:21:14.517Z,13.17
2022-08-17T06:23:47.169Z,11.03
2022-08-17T06:26:20.293Z,9.63
2022-08-17T06:28:54.211Z,4.83
2022-08-17T06:31:29.239Z,6.20
2022-08-17T06:33:58.803Z,9.77
2022-08-17T06:36:42.697Z,10.70
2022-08-17T06:39:27.264Z,14.10
2022-08-17T06:42:06.423Z,9.27
2022-08-17T06:44:49.965Z,14.27
2022-08-17T06:47:28.635Z,14.30
2022-08-17T06:50:07.100Z,18.07
2022-08-17T06:52:47.110Z,7.93
2022-08-17T06:55:21.149Z,11.63
2022-08-17T06:57:52.713Z,8.60
2022-08-17T07:00:23.819Z,10.13
2022-08-17T07:02:58.766Z,6.93
2022-08-17T07:05:31.649Z,7.40
2022-08-17T07:08:12.760Z,13.87
2022-08-17T07:10:45.542Z,9.30
2022-08-17T07:13:38.275Z,11.30
2022-08-17T07:16:14.971Z,16.90
2022-08-17T07:18:43.739Z,17.70
2022-08-17T07:21:26.532Z,9.93
2022-08-17T07:24:11.311Z,9.00
2022-08-17T07:27:06.332Z,11.23
2022-08-17T07:29:40.276Z,10.60
2022-08-17T07:32:09.980Z,10.53
2022-08-17T07:35:03.205Z,8.73
2022-08-17T07:37:33.613Z,13.43
2022-08-17T07:40:20.854Z,13.23
2022-08-17T07:43:23.307Z,15.27
2022-08-17T07:46:35.656Z,10.67
2022-08-17T07:49:34.588Z,14.10
2022-08-17T07:52:24.326Z,12.70
2022-08-17T07:54:54.611Z,11.47
2022-08-17T07:57:37.219Z,11.70
2022-08-17T08:00:16.850Z,14.60
2022-08-17T08:02:47.913Z,13.60
2022-08-17T08:05:30.722Z,10.57
2022-08-17T08:08:26.267Z,10.67
2022-08-17T08:11:08.187Z,9.00
2022-08-17T08:13:42.738Z,10.73
2022-08-17T08:16:20.685Z,15.27
2022-08-17T08:18:54.299Z,13.70
2022-08-17T08:21:36.600Z,12.30
2022-08-17T08:24:30.034Z,10.10
2022-08-17T08:27:07.218Z,10.37
2022-08-17T08:29:46.421Z,11.23
2022-08-17T08:32:20.462Z,11.43
2022-08-17T08:35:02.204Z,8.30
2022-08-17T08:37:43.289Z,12.67
2022-08-17T08:40:22.606Z,10.60
2022-08-17T08:43:00.053Z,7.33
2022-08-17T08:45:38.325Z,13.33
2022-08-17T08:48:56.014Z,14.90
2022-08-17T08:51:22.423Z,15.03
2022-08-17T08:53:58.235Z,13.67
2022-08-17T08:56:35.285Z,12.53
2022-08-17T08:59:10.973Z,12.33
2022-08-17T09:01:51.882Z,16.73
2022-08-17T09:05:02.764Z,12.70
2022-08-17T09:07:36.486Z,11.70
2022-08-17T09:10:13.871Z,10.13
2022-08-17T09:12:49.625Z,12.10
2022-08-17T09:15:21.760Z,14.13
2022-08-17T09:18:21.326Z,13.67
2022-08-17T09:20:50.670Z,11.07
2022-08-17T09:23:31.650Z,10.60
2022-08-17T09:26:06.212Z,13.63
2022-08-17T09:28:37.150Z,11.13
2022-08-17T09:31:10.266Z,11.60
2022-08-17T09:33:48.902Z,11.77
2022-08-17T09:36:24.112Z,10.63
2022-08-17T09:39:08.277Z,12.20
2022-08-17T09:41:48.852Z,12.57
2022-08-17T09:44:27.801Z,13.17
2022-08-17T09:47:02.539Z,17.53
2022-08-17T09:49:36.116Z,12.57
2022-08-17T09:52:10.824Z,14.93
2022-08-17T09:54:41.200Z,12.43
2022-08-17T09:57:31.774Z,11.30
2022-08-17T10:00:16.503Z,12.03
2022-08-17T10:03:09.883Z,13.00
2022-08-17T10:05:56.848Z,16.87
2022-08-17T10:08:36.493Z,12.57
2022-08-17T10:11:13.923Z,12.43
2022-08-17T10:13:52.988Z,11.70
2022-08-17T10:16:30.338Z,9.20
2022-08-17T10:19:09.835Z,10.93
2022-08-17T10:22:14.619Z,10.77
2022-08-17T10:25:22.222Z,11.60
2022-08-17T10:28:00.833Z,12.03
2022-08-17T10:30:32.641Z,9.43
2022-08-17T10:33:05.971Z,11.27
2022-08-17T10:35:41.213Z,10.60
2022-08-17T10:38:36.419Z,11.70
2022-08-17T10:41:24.032Z,9.53
2022-08-17T10:44:38.353Z,10.37
2022-08-17T10:47:08.154Z,8.47
2022-08-17T10:49:38.401Z,9.03
2022-08-17T10:52:48.775Z,8.87
2022-08-17T10:55:20.355Z,10.97
2022-08-17T10:57:50.672Z,8.77
2022-08-17T11:01:12.088Z,16.07
2022-08-17T11:03:54.718Z,12.70
2022-08-17T11:06:34.419Z,9.83
2022-08-17T11:09:26.423Z,10.63
2022-08-17T11:12:13.496Z,10.40
2022-08-17T11:14:53.231Z,11.13
2022-08-17T11:17:35.381Z,13.73
2022-08-17T11:20:28.528Z,15.13
2022-08-17T11:23:32.632Z,11.40
2022-08-17T11:26:08.250Z,13.03
2022-08-17T11:28:48.769Z,9.87
2022-08-17T11:31:39.029Z,13.63
2022-08-17T11:34:15.061Z,11.20
2022-08-17T11:37:15.585Z,11.03
2022-08-17T11:40:05.933Z,12.93
2022-08-17T11:42:49.893Z,13.37
2022-08-17T11:45:46.227Z,11.77
2022-08-17T11:48:41.279Z,11.53
2022-08-17T11:51:32.073Z,12.13
2022-08-17T11:54:32.720Z,12.27
2022-08-17T11:56:54.234Z,13.00
2022-08-17T11:59:58.792Z,11.40
2022-08-17T12:02:48.095Z,12.00
2022-08-17T12:05:40.429Z,12.10
2022-08-17T12:08:15.918Z,12.40
2022-08-17T12:11:00.181Z,12.73
2022-08-17T12:13:30.622Z,14.60
2022-08-17T12:16:08.233Z,11.77
2022-08-17T12:18:39.785Z,13.57
2022-08-17T12:21:20.365Z,13.07
2022-08-17T12:23:56.943Z,12.03
2022-08-17T12:26:30.298Z,14.53
2022-08-17T12:29:01.897Z,13.50
2022-08-17T12:31:34.602Z,12.17
2022-08-17T12:34:05.935Z,16.33
2022-08-17T12:36:34.566Z,12.60
2022-08-17T12:39:14.611Z,14.87
2022-08-17T12:41:46.824Z,12.93
2022-08-17T12:44:17.774Z,13.00
2022-08-17T12:46:52.211Z,12.57
2022-08-17T12:49:26.437Z,11.53
2022-08-17T12:52:02.051Z,14.43
2022-08-17T12:54:34.792Z,10.57
2022-08-17T12:57:08.635Z,12.80
2022-08-17T12:59:42.652Z,14.77
2022-08-17T13:02:29.300Z,10.63
2022-08-17T13:05:01.632Z,9.93
2022-08-17T13:07:36.189Z,9.50
2022-08-17T13:10:05.429Z,12.30
2022-08-17T13:12:36.460Z,10.50
2022-08-17T13:15:05.134Z,8.63
2022-08-17T13:17:35.893Z,10.83
2022-08-17T13:20:14.646Z,9.13
2022-08-17T13:22:45.241Z,13.73
2022-08-17T13:25:17.783Z,14.33
2022-08-17T13:27:47.546Z,12.20
2022-08-17T13:30:23.775Z,10.63
2022-08-17T13:32:53.781Z,11.53
2022-08-17T13:35:44.139Z,9.83
2022-08-17T13:38:18.030Z,10.50
2022-08-17T13:40:51.916Z,10.80
2022-08-17T13:43:45.614Z,10.57
2022-08-17T13:46:20.971Z,14.27
2022-08-17T13:48:59.474Z,9.67
2022-08-17T13:51:33.470Z,9.87
2022-08-17T13:54:09.347Z,9.93
2022-08-17T13:57:03.601Z,11.17
2022-08-17T13:59:55.325Z,11.83
2022-08-17T14:02:27.621Z,10.20
2022-08-17T14:04:58.515Z,10.33
2022-08-17T14:07:34.636Z,10.73
2022-08-17T14:10:06.414Z,12.33
2022-08-17T14:12:35.889Z,12.20
2022-08-17T14:15:03.964Z,14.90
2022-08-17T14:17:37.923Z,14.13
2022-08-17T14:20:09.512Z,16.23
2022-08-17T14:22:43.904Z,11.77
2022-08-17T14:25:13.479Z,14.63
2022-08-17T14:27:52.723Z,11.30
2022-08-17T14:30:24.732Z,11.87
2022-08-17T14:32:53.137Z,16.50
2022-08-17T14:35:23.215Z,10.83
2022-08-17T14:37:53.208Z,12.43
2022-08-17T14:40:24.460Z,10.77
2022-08-17T14:42:54.258Z,11.13
2022-08-17T14:45:32.891Z,12.70
2022-08-17T14:48:03.871Z,13.33
2022-08-17T14:50:32.016Z,12.17
2022-08-17T14:53:05.625Z,14.67
2022-08-17T14:55:33.799Z,15.00
2022-08-17T14:58:01.912Z,14.73
2022-08-17T15:00:29.851Z,13.33
2022-08-17T15:02:59.993Z,14.23
2022-08-17T15:05:34.833Z,14.50
2022-08-17T15:08:05.540Z,18.37
2022-08-17T15:10:34.476Z,15.87
2022-08-17T15:13:02.523Z,16.40
2022-08-17T15:15:31.282Z,15.33
2022-08-17T15:17:59.633Z,15.60
2022-08-17T15:20:29.925Z,34.23
2022-08-17T15:22:59.061Z,23.73
2022-08-17T15:25:31.625Z,19.50
2022-08-17T15:28:00.191Z,16.87
2022-08-17T15:30:29.227Z,13.47
2022-08-17T15:32:59.293Z,21.17
2022-08-17T15:35:31.985Z,18.30
2022-08-17T15:38:08.047Z,15.50
2022-08-17T15:40:42.768Z,12.73
2022-08-17T15:43:13.556Z,22.87
2022-08-17T15:45:41.967Z,13.17
2022-08-17T15:48:10.206Z,17.47
2022-08-17T15:50:38.336Z,17.50
2022-08-17T15:53:06.275Z,14.03
2022-08-17T15:55:36.555Z,22.90
2022-08-17T15:58:06.917Z,14.10
2022-08-17T16:00:53.294Z,14.97
2022-08-17T16:04:01.318Z,14.17
2022-08-17T16:06:13.444Z,25.17
2022-08-17T16:08:43.498Z,19.30
2022-08-17T16:11:12.594Z,15.80
2022-08-17T16:13:42.271Z,26.73
2022-08-17T16:16:23.547Z,21.73
2022-08-17T16:18:53.676Z,11.17
2022-08-17T16:21:26.764Z,10.57
2022-08-17T16:23:58.182Z,13.30
2022-08-17T16:26:27.260Z,11.37
2022-08-17T16:28:57.604Z,10.93
2022-08-17T16:31:26.113Z,10.60
2022-08-17T16:34:15.997Z,10.07
2022-08-17T16:36:55.540Z,11.53
2022-08-17T16:39:29.026Z,11.07
2022-08-17T16:41:57.529Z,13.90
2022-08-17T16:44:28.877Z,9.97
2022-08-17T16:46:57.426Z,14.37
2022-08-17T16:49:37.495Z,12.13
2022-08-17T16:52:07.694Z,14.93
2022-08-17T16:54:37.895Z,9.83
2022-08-17T16:57:06.232Z,13.43
2022-08-17T16:59:40.896Z,13.37
2022-08-17T17:02:14.022Z,11.87
2022-08-17T17:04:47.438Z,9.87
2022-08-17T17:07:28.108Z,12.67
2022-08-17T17:09:56.792Z,10.83
2022-08-17T17:12:34.946Z,11.23
2022-08-17T17:15:24.814Z,13.00
2022-08-17T17:17:53.552Z,10.13
2022-08-17T17:20:25.889Z,12.53
2022-08-17T17:23:05.318Z,10.17
2022-08-17T17:25:39.575Z,15.93
2022-08-17T17:28:15.227Z,12.20
2022-08-17T17:30:50.542Z,11.47
2022-08-17T17:33:22.424Z,13.07
2022-08-17T17:35:52.867Z,11.07
2022-08-17T17:38:29.152Z,9.80
2022-08-17T17:41:03.130Z,10.73
2022-08-17T17:43:39.693Z,8.27
2022-08-17T17:46:28.506Z,11.23
2022-08-17T17:48:57.417Z,8.03
2022-08-17T17:52:06.525Z,7.83
2022-08-17T17:54:33.731Z,7.50
2022-08-17T17:57:08.494Z,8.00
2022-08-17T17:59:44.309Z,8.00
2022-08-17T18:02:51.308Z,7.17
2022-08-17T18:05:44.623Z,9.40
2022-08-17T18:08:31.922Z,8.23
2022-08-17T18:11:13.396Z,7.83
2022-08-17T18:13:56.717Z,8.10
2022-08-17T18:16:29.566Z,7.57
2022-08-17T18:19:02.047Z,8.50
2022-08-17T18:21:36.467Z,8.73
2022-08-17T18:24:07.410Z,7.73
2022-08-17T18:26:39.267Z,8.97
2022-08-17T18:29:22.084Z,8.60
2022-08-17T18:31:52.479Z,11.07
2022-08-17T18:37:16.123Z,8.27
2022-08-17T18:39:47.524Z,9.20
2022-08-17T18:42:26.871Z,9.23
2022-08-17T18:44:56.013Z,9.50
2022-08-17T18:47:26.084Z,11.17
2022-08-17T18:49:58.029Z,11.83
2022-08-17T18:52:28.701Z,10.13
2022-08-17T18:55:04.092Z,11.97
2022-08-17T18:57:35.334Z,9.93
2022-08-17T19:00:11.124Z,13.57
2022-08-17T19:02:51.920Z,10.03
2022-08-17T19:05:36.627Z,15.53
2022-08-17T19:08:22.719Z,10.60
2022-08-17T19:10:54.858Z,9.50
2022-08-17T19:13:29.184Z,9.60
2022-08-17T19:16:13.764Z,10.70
2022-08-17T19:18:47.402Z,10.60
2022-08-17T19:21:21.148Z,8.73
2022-08-17T19:23:54.507Z,8.63
2022-08-17T19:26:51.249Z,9.80
2022-08-17T19:29:19.530Z,10.63
2022-08-17T19:31:50.954Z,9.00
2022-08-17T19:34:31.156Z,9.10
2022-08-17T19:37:21.545Z,8.50
2022-08-17T19:40:00.721Z,9.53
2022-08-17T19:42:37.224Z,8.80
2022-08-17T19:45:13.024Z,8.60
2022-08-17T19:47:57.832Z,8.63
2022-08-17T19:50:38.196Z,7.87
2022-08-17T19:53:17.572Z,8.10
2022-08-17T19:55:54.921Z,7.80
2022-08-17T19:58:36.448Z,9.83
2022-08-17T20:01:10.113Z,10.20
2022-08-17T20:03:51.934Z,8.13
2022-08-17T20:06:21.280Z,9.40
2022-08-17T20:08:59.277Z,7.70
2022-08-17T20:11:34.434Z,7.73
2022-08-17T20:14:07.734Z,10.63
2022-08-17T20:16:35.705Z,8.47
2022-08-17T20:19:08.036Z,7.63
2022-08-17T20:21:40.188Z,11.53
2022-08-17T20:24:21.217Z,7.83
2022-08-17T20:26:57.972Z,8.20
2022-08-17T20:29:40.059Z,7.77
2022-08-17T20:32:25.503Z,7.53
2022-08-17T20:35:10.768Z,10.07
2022-08-17T20:37:44.128Z,11.00
2022-08-17T20:40:22.053Z,8.20
2022-08-17T20:42:50.224Z,10.60
2022-08-17T20:45:49.206Z,8.47
2022-08-17T20:48:37.033Z,8.23
2022-08-17T20:51:24.085Z,10.97
2022-08-17T20:54:07.521Z,8.80
2022-08-17T20:56:56.197Z,10.50
2022-08-17T20:59:56.082Z,9.20
2022-08-17T21:02:26.717Z,11.13
2022-08-17T21:05:27.146Z,9.53
2022-08-17T21:08:01.859Z,8.87
2022-08-17T21:10:38.459Z,9.60
2022-08-17T21:16:05.234Z,10.37
2022-08-17T21:18:42.011Z,10.40
2022-08-17T21:21:22.228Z,10.73
2022-08-17T21:24:07.908Z,11.33
2022-08-17T21:26:50.574Z,11.40
2022-08-17T21:29:31.858Z,11.60
2022-08-17T21:32:24.736Z,11.03
2022-08-17T21:35:28.963Z,11.63
2022-08-17T21:38:05.375Z,12.20
2022-08-17T21:40:35.090Z,11.50
2022-08-17T21:43:18.015Z,10.63
2022-08-17T21:45:57.601Z,12.40
2022-08-17T21:48:30.822Z,11.70
2022-08-17T21:51:10.406Z,11.70
2022-08-17T21:53:46.286Z,12.00
2022-08-17T21:56:23.146Z,11.53
2022-08-17T21:58:58.186Z,10.13
2022-08-17T22:01:28.179Z,10.77
2022-08-17T22:04:04.228Z,9.90
2022-08-17T22:06:37.239Z,14.80
2022-08-17T22:09:17.528Z,10.20
2022-08-17T22:12:13.406Z,12.97
2022-08-17T22:14:53.345Z,13.17
2022-08-17T22:17:24.506Z,10.73
2022-08-17T22:19:56.282Z,11.37
2022-08-17T22:22:28.620Z,11.20
2022-08-17T22:24:58.932Z,11.57
2022-08-17T22:27:56.889Z,12.10
2022-08-17T22:30:37.241Z,11.57
2022-08-17T22:33:31.843Z,11.80
2022-08-17T22:36:25.779Z,12.63
2022-08-17T22:38:55.641Z,12.13
2022-08-17T22:41:34.480Z,12.23
2022-08-17T22:44:24.057Z,12.20
2022-08-17T22:46:56.967Z,11.67
2022-08-17T22:49:29.189Z,14.80
2022-08-17T22:52:32.128Z,15.60
2022-08-17T22:55:26.412Z,13.30
2022-08-17T22:58:12.052Z,12.23
2022-08-17T23:00:41.867Z,13.43
2022-08-17T23:03:13.975Z,13.30
2022-08-17T23:05:45.567Z,12.43
2022-08-17T23:08:20.953Z,13.87
2022-08-17T23:10:49.422Z,12.43
2022-08-17T23:13:17.387Z,12.90
2022-08-17T23:15:45.858Z,13.33
2022-08-17T23:18:13.780Z,14.80
2022-08-17T23:20:42.424Z,12.33
2022-08-17T23:23:11.890Z,12.40
2022-08-17T23:25:44.563Z,13.03
2022-08-17T23:28:12.964Z,13.57
2022-08-17T23:30:43.659Z,14.43
2022-08-17T23:33:20.029Z,14.30
2022-08-17T23:35:48.374Z,14.87
2022-08-17T23:38:16.304Z,15.87
2022-08-17T23:40:45.622Z,15.83
2022-08-17T23:43:24.287Z,18.27
2022-08-17T23:45:55.014Z,16.53
2022-08-17T23:48:32.688Z,17.00
2022-08-17T23:51:08.578Z,18.50
2022-08-17T23:53:40.100Z,18.23
2022-08-17T23:56:11.290Z,20.73
2022-08-17T23:58:41.952Z,18.20
